createdAt,value
2023-03-02T00:00:16.400Z,12.58
2023-03-02T00:02:46.073Z,12.46
2023-03-02T00:05:14.819Z,12.50
2023-03-02T00:07:42.817Z,12.34
2023-03-02T00:10:11.873Z,12.31
2023-03-02T00:12:40.083Z,12.42
2023-03-02T00:15:09.452Z,12.37
2023-03-02T00:17:39.027Z,12.34
2023-03-02T00:20:11.445Z,12.30
2023-03-02T00:22:42.241Z,12.21
2023-03-02T00:25:11.242Z,12.17
2023-03-02T00:27:39.381Z,11.96
2023-03-02T00:30:09.243Z,12.01
2023-03-02T00:32:39.400Z,11.99
2023-03-02T00:35:10.577Z,11.95
2023-03-02T00:37:39.085Z,11.83
2023-03-02T00:40:09.549Z,11.82
2023-03-02T00:42:38.682Z,11.76
2023-03-02T00:45:09.397Z,11.73
2023-03-02T00:47:38.052Z,11.71
2023-03-02T00:50:08.354Z,11.66
2023-03-02T00:52:36.490Z,11.65
2023-03-02T00:55:04.925Z,11.70
2023-03-02T00:57:33.050Z,11.76
2023-03-02T01:00:02.485Z,11.83
2023-03-02T01:02:39.171Z,11.81
2023-03-02T01:05:09.511Z,11.88
2023-03-02T01:07:37.509Z,11.94
2023-03-02T01:10:06.519Z,11.95
2023-03-02T01:12:34.648Z,11.99
2023-03-02T01:15:03.297Z,11.99
2023-03-02T01:17:31.331Z,12.00
2023-03-02T01:20:00.076Z,12.01
2023-03-02T01:22:30.089Z,12.02
2023-03-02T01:24:58.840Z,11.89
2023-03-02T01:27:27.094Z,12.01
2023-03-02T01:29:55.149Z,11.97
2023-03-02T01:32:23.690Z,12.06
2023-03-02T01:34:52.793Z,12.03
2023-03-02T01:37:20.939Z,12.06
2023-03-02T01:39:50.870Z,12.03
2023-03-02T01:42:19.313Z,11.98
2023-03-02T01:44:48.066Z,11.99
2023-03-02T01:47:19.024Z,11.97
2023-03-02T01:50:16.054Z,11.96
2023-03-02T01:52:44.718Z,11.98
2023-03-02T01:55:16.646Z,11.98
2023-03-02T01:57:49.048Z,11.99
2023-03-02T02:00:19.991Z,11.95
2023-03-02T02:02:48.236Z,11.95
2023-03-02T02:05:19.015Z,11.95
2023-03-02T02:07:47.927Z,12.05
2023-03-02T02:10:20.054Z,12.04
2023-03-02T02:12:48.413Z,12.04
2023-03-02T02:15:16.563Z,11.90
2023-03-02T02:17:44.616Z,12.02
2023-03-02T02:20:19.576Z,12.03
2023-03-02T02:22:54.571Z,11.93
2023-03-02T02:25:33.946Z,12.02
2023-03-02T02:28:08.536Z,11.98
2023-03-02T02:30:36.632Z,11.97
2023-03-02T02:33:05.085Z,11.98
2023-03-02T02:35:34.878Z,11.96
2023-03-02T02:38:05.539Z,11.95
2023-03-02T02:40:43.300Z,11.96
2023-03-02T02:43:20.245Z,11.94
2023-03-02T02:45:48.401Z,11.82
2023-03-02T02:48:23.084Z,11.95
2023-03-02T02:50:55.329Z,11.96
2023-03-02T02:53:25.786Z,11.93
2023-03-02T02:55:54.654Z,11.93
2023-03-02T02:58:29.765Z,11.99
2023-03-02T03:00:57.984Z,11.95
2023-03-02T03:03:30.899Z,11.98
2023-03-02T03:06:02.918Z,11.93
2023-03-02T03:08:55.948Z,11.96
2023-03-02T03:11:35.398Z,11.93
2023-03-02T03:14:07.620Z,11.88
2023-03-02T03:16:36.369Z,11.94
2023-03-02T03:19:08.398Z,11.91
2023-03-02T03:21:36.788Z,11.93
2023-03-02T03:24:05.934Z,11.79
2023-03-02T03:26:34.667Z,11.90
2023-03-02T03:29:05.265Z,11.91
2023-03-02T03:31:33.532Z,11.88
2023-03-02T03:34:03.481Z,11.89
2023-03-02T03:36:35.560Z,11.89
2023-03-02T03:39:04.101Z,11.82
2023-03-02T03:41:32.123Z,11.86
2023-03-02T03:44:00.671Z,11.83
2023-03-02T03:46:33.477Z,11.81
2023-03-02T03:49:01.943Z,11.85
2023-03-02T03:51:30.116Z,11.84
2023-03-02T03:54:01.214Z,11.81
2023-03-02T03:56:35.817Z,11.82
2023-03-02T03:59:07.385Z,11.82
2023-03-02T04:01:47.130Z,11.70
2023-03-02T04:04:17.360Z,11.77
2023-03-02T04:06:46.103Z,11.70
2023-03-02T04:09:15.952Z,11.68
2023-03-02T04:11:45.860Z,11.68
2023-03-02T04:14:14.831Z,11.65
2023-03-02T04:16:45.184Z,11.39
2023-03-02T04:19:13.985Z,11.59
2023-03-02T04:21:44.970Z,11.60
2023-03-02T04:24:14.665Z,11.62
2023-03-02T04:26:42.985Z,11.58
2023-03-02T04:29:12.255Z,11.55
2023-03-02T04:31:44.401Z,11.58
2023-03-02T04:34:15.156Z,11.62
2023-03-02T04:36:45.577Z,11.64
2023-03-02T04:39:16.518Z,11.50
2023-03-02T04:41:49.721Z,11.56
2023-03-02T04:44:18.014Z,11.54
2023-03-02T04:46:46.010Z,11.58
2023-03-02T04:49:16.785Z,11.58
2023-03-02T04:51:45.938Z,11.42
2023-03-02T04:54:16.491Z,11.56
2023-03-02T04:56:44.966Z,11.43
2023-03-02T04:59:14.220Z,11.57
2023-03-02T05:01:45.759Z,11.53
2023-03-02T05:04:13.903Z,11.54
2023-03-02T05:06:44.971Z,11.48
2023-03-02T05:09:13.033Z,11.47
2023-03-02T05:11:43.714Z,11.45
2023-03-02T05:14:13.175Z,11.31
2023-03-02T05:16:42.201Z,11.43
2023-03-02T05:19:11.404Z,11.43
2023-03-02T05:21:41.917Z,11.38
2023-03-02T05:24:11.573Z,11.49
2023-03-02T05:26:39.862Z,11.44
2023-03-02T05:29:08.159Z,11.38
2023-03-02T05:31:37.224Z,11.47
2023-03-02T05:34:06.964Z,11.41
2023-03-02T05:36:35.295Z,11.38
2023-03-02T05:39:05.148Z,11.38
2023-03-02T05:41:34.994Z,11.37
2023-03-02T05:44:03.201Z,11.30
2023-03-02T05:46:31.538Z,11.42
2023-03-02T05:49:02.160Z,11.34
2023-03-02T05:51:30.310Z,11.38
2023-03-02T05:53:58.370Z,11.39
2023-03-02T05:56:26.410Z,11.40
2023-03-02T05:58:55.861Z,11.40
2023-03-02T06:01:24.065Z,11.38
2023-03-02T06:04:00.394Z,11.38
2023-03-02T06:06:28.839Z,11.30
2023-03-02T06:08:56.748Z,11.33
2023-03-02T06:11:24.760Z,11.30
2023-03-02T06:13:52.893Z,11.27
2023-03-02T06:16:22.413Z,11.27
2023-03-02T06:18:50.731Z,11.29
2023-03-02T06:21:20.180Z,11.30
2023-03-02T06:23:48.309Z,11.34
2023-03-02T06:26:20.182Z,11.30
2023-03-02T06:28:53.613Z,11.34
2023-03-02T06:31:25.306Z,11.35
2023-03-02T06:33:53.481Z,11.24
2023-03-02T06:36:21.735Z,11.33
2023-03-02T06:38:50.453Z,11.29
2023-03-02T06:41:20.323Z,11.27
2023-03-02T06:43:48.375Z,11.26
2023-03-02T06:46:16.422Z,11.24
2023-03-02T06:48:53.118Z,11.30
2023-03-02T06:51:21.808Z,11.30
2023-03-02T06:53:51.226Z,11.32
2023-03-02T06:56:19.234Z,11.29
2023-03-02T06:58:47.224Z,11.22
2023-03-02T07:01:16.075Z,11.34
2023-03-02T07:04:24.045Z,11.35
2023-03-02T07:06:52.067Z,11.23
2023-03-02T07:09:20.235Z,11.26
2023-03-02T07:11:48.292Z,11.22
2023-03-02T07:14:17.434Z,11.24
2023-03-02T07:16:45.449Z,11.21
2023-03-02T07:19:13.885Z,11.23
2023-03-02T07:21:44.186Z,11.20
2023-03-02T07:24:12.154Z,11.11
2023-03-02T07:26:43.039Z,11.17
2023-03-02T07:29:11.060Z,11.24
2023-03-02T07:32:36.510Z,11.26
2023-03-02T07:35:07.867Z,11.18
2023-03-02T07:41:52.485Z,11.07
2023-03-02T07:44:22.945Z,11.11
2023-03-02T07:47:52.963Z,11.17
2023-03-02T07:50:22.222Z,11.15
2023-03-02T07:56:52.770Z,11.19
2023-03-02T07:59:21.886Z,11.31
2023-03-02T08:01:51.030Z,11.37
2023-03-02T08:04:19.252Z,11.33
2023-03-02T08:06:47.296Z,11.41
2023-03-02T08:09:17.193Z,11.39
2023-03-02T08:11:48.898Z,11.46
2023-03-02T08:14:24.959Z,11.53
2023-03-02T08:16:53.387Z,11.58
2023-03-02T08:19:24.301Z,11.45
2023-03-02T08:24:21.334Z,11.57
2023-03-02T08:26:50.429Z,11.60
2023-03-02T08:29:21.895Z,11.62
2023-03-02T08:31:53.209Z,11.64
2023-03-02T08:34:21.397Z,11.44
2023-03-02T08:36:51.328Z,11.53
2023-03-02T08:39:22.148Z,11.63
2023-03-02T08:41:52.613Z,11.65
2023-03-02T08:44:23.862Z,11.72
2023-03-02T08:46:52.918Z,11.76
2023-03-02T08:49:20.991Z,11.57
2023-03-02T08:51:53.511Z,11.79
2023-03-02T08:54:22.255Z,11.59
2023-03-02T08:56:50.503Z,11.59
2023-03-02T08:59:18.763Z,11.72
2023-03-02T09:01:48.534Z,11.95
2023-03-02T09:04:21.833Z,12.01
2023-03-02T09:06:50.946Z,12.08
2023-03-02T09:09:20.231Z,12.11
2023-03-02T09:11:48.406Z,12.18
2023-03-02T09:14:16.657Z,12.05
2023-03-02T09:16:45.424Z,12.23
2023-03-02T09:19:15.191Z,12.20
2023-03-02T09:21:43.432Z,12.46
2023-03-02T09:24:11.950Z,12.38
2023-03-02T09:26:41.359Z,12.51
2023-03-02T09:29:10.491Z,12.51
2023-03-02T09:31:40.916Z,12.55
2023-03-02T09:34:09.158Z,12.56
2023-03-02T09:36:40.107Z,12.61
2023-03-02T09:39:12.473Z,12.66
2023-03-02T09:42:12.694Z,12.76
2023-03-02T09:45:01.996Z,12.72
2023-03-02T09:47:36.080Z,12.68
2023-03-02T09:50:12.284Z,12.60
2023-03-02T09:52:44.323Z,12.60
2023-03-02T09:59:15.047Z,12.51
2023-03-02T10:05:58.737Z,12.82
2023-03-02T10:09:20.003Z,12.92
2023-03-02T10:30:16.227Z,13.43
2023-03-02T10:33:35.405Z,13.40
2023-03-02T10:37:07.873Z,13.71
2023-03-02T10:39:56.859Z,13.90
2023-03-02T10:42:57.882Z,13.95
2023-03-02T10:45:42.258Z,13.75
2023-03-02T10:49:21.188Z,14.00
2023-03-02T10:53:22.966Z,14.56
2023-03-02T11:03:32.494Z,14.60
2023-03-02T11:35:27.492Z,15.99
2023-03-02T11:48:21.538Z,16.71
2023-03-02T11:59:37.204Z,15.92
2023-03-02T12:13:43.136Z,15.62
2023-03-02T12:20:31.762Z,15.87
2023-03-02T12:23:29.082Z,15.69
2023-03-02T12:26:13.297Z,15.33
2023-03-02T12:28:59.800Z,15.11
2023-03-02T12:32:08.022Z,15.15
2023-03-02T12:34:45.158Z,15.16
2023-03-02T12:37:46.976Z,15.59
2023-03-02T12:40:54.742Z,15.92
2023-03-02T12:44:03.650Z,16.13
2023-03-02T12:46:50.699Z,16.10
2023-03-02T12:49:50.664Z,16.18
2023-03-02T12:55:45.123Z,16.73
2023-03-02T12:58:49.218Z,17.08
2023-03-02T13:01:41.880Z,17.58
2023-03-02T13:04:38.340Z,18.13
2023-03-02T13:10:41.351Z,18.21
2023-03-02T13:13:27.341Z,18.39
2023-03-02T13:16:03.895Z,18.47
2023-03-02T13:18:39.881Z,18.53
2023-03-02T13:21:41.576Z,18.70
2023-03-02T13:24:38.421Z,18.90
2023-03-02T13:27:25.835Z,19.00
2023-03-02T13:30:01.078Z,19.02
2023-03-02T13:32:41.254Z,19.17
2023-03-02T13:35:40.917Z,19.27
2023-03-02T13:38:26.111Z,19.19
2023-03-02T13:41:02.609Z,19.52
2023-03-02T13:43:43.323Z,19.67
2023-03-02T13:46:36.665Z,19.69
2023-03-02T13:50:29.894Z,19.78
2023-03-02T13:53:08.613Z,19.65
2023-03-02T13:55:39.138Z,19.55
2023-03-02T13:58:20.422Z,19.06
2023-03-02T14:00:53.309Z,18.63
2023-03-02T14:03:27.843Z,17.95
2023-03-02T14:06:03.310Z,17.33
2023-03-02T14:09:11.357Z,16.70
2023-03-02T14:15:53.692Z,15.54
2023-03-02T14:24:04.818Z,14.83
2023-03-02T15:38:12.466Z,14.17
2023-03-02T16:26:19.085Z,19.89
2023-03-02T16:51:36.758Z,17.72
2023-03-02T16:54:21.177Z,18.22
2023-03-02T16:56:51.630Z,18.60
2023-03-02T16:59:22.101Z,18.68
2023-03-02T17:01:55.060Z,18.50
2023-03-02T17:04:32.030Z,18.33
2023-03-02T17:07:20.519Z,18.28
2023-03-02T17:10:20.082Z,18.51
2023-03-02T17:13:57.681Z,18.84
2023-03-02T18:17:48.342Z,12.41
2023-03-02T18:57:30.786Z,10.66
2023-03-02T19:09:23.912Z,10.18
2023-03-02T19:11:52.388Z,10.09
2023-03-02T19:14:20.482Z,10.01
2023-03-02T19:16:48.506Z,9.96
2023-03-02T19:19:16.455Z,9.88
2023-03-02T19:21:44.508Z,9.78
2023-03-02T19:24:12.705Z,9.65
2023-03-02T19:26:42.249Z,9.67
2023-03-02T19:29:10.288Z,9.63
2023-03-02T19:31:39.361Z,9.58
2023-03-02T19:34:07.409Z,9.51
2023-03-02T19:36:35.344Z,9.45
2023-03-02T19:39:03.371Z,9.32
2023-03-02T19:41:31.425Z,9.38
2023-03-02T19:44:01.992Z,9.34
2023-03-02T19:46:29.935Z,9.27
2023-03-02T19:48:58.003Z,9.21
2023-03-02T19:51:26.058Z,9.10
2023-03-02T19:53:54.779Z,9.06
2023-03-02T19:56:26.757Z,8.97
2023-03-02T19:58:54.860Z,8.87
2023-03-02T20:01:25.094Z,8.79
2023-03-02T20:03:54.364Z,8.70
2023-03-02T20:06:22.756Z,8.55
2023-03-02T20:08:51.007Z,8.44
2023-03-02T20:11:19.162Z,8.50
2023-03-02T20:13:48.295Z,8.44
2023-03-02T20:16:16.499Z,8.40
2023-03-02T20:18:45.842Z,8.26
2023-03-02T20:21:13.924Z,8.36
2023-03-02T20:23:43.166Z,8.33
2023-03-02T20:26:12.532Z,8.28
2023-03-02T20:28:40.726Z,8.00
2023-03-02T20:31:11.923Z,8.09
2023-03-02T20:33:42.637Z,8.09
2023-03-02T20:36:12.640Z,8.08
2023-03-02T20:38:41.819Z,8.08
2023-03-02T20:41:10.734Z,7.98
2023-03-02T20:43:38.947Z,8.05
2023-03-02T20:46:07.464Z,8.08
2023-03-02T20:48:35.530Z,8.04
2023-03-02T20:51:03.985Z,8.05
2023-03-02T20:53:33.685Z,8.03
2023-03-02T20:56:01.709Z,7.99
2023-03-02T20:58:30.012Z,7.91
2023-03-02T21:03:43.876Z,7.87
2023-03-02T21:06:13.060Z,7.80
2023-03-02T21:08:42.549Z,7.63
2023-03-02T21:11:11.522Z,7.72
2023-03-02T21:13:39.986Z,7.66
2023-03-02T21:16:09.511Z,7.61
2023-03-02T21:18:38.353Z,7.57
2023-03-02T21:21:07.762Z,7.51
2023-03-02T21:23:35.818Z,7.36
2023-03-02T21:26:05.535Z,7.37
2023-03-02T21:28:33.555Z,7.47
2023-03-02T21:31:01.509Z,7.50
2023-03-02T21:33:29.801Z,7.30
2023-03-02T21:35:57.957Z,7.43
2023-03-02T21:38:25.952Z,7.29
2023-03-02T21:40:54.093Z,7.35
2023-03-02T21:43:23.662Z,7.14
2023-03-02T21:45:51.720Z,7.28
2023-03-02T21:48:22.559Z,7.35
2023-03-02T21:50:51.115Z,7.29
2023-03-02T21:53:19.628Z,7.21
2023-03-02T21:55:47.876Z,7.36
2023-03-02T21:58:16.943Z,7.34
2023-03-02T22:00:46.636Z,7.34
2023-03-02T22:03:14.980Z,7.32
2023-03-02T22:05:43.108Z,7.16
2023-03-02T22:08:11.383Z,7.20
2023-03-02T22:10:40.937Z,7.27
2023-03-02T22:13:17.512Z,7.22
2023-03-02T22:15:47.402Z,7.11
2023-03-02T22:18:16.080Z,7.22
2023-03-02T22:20:44.966Z,7.18
2023-03-02T22:23:13.676Z,7.23
2023-03-02T22:25:43.474Z,7.22
2023-03-02T22:28:18.376Z,7.21
2023-03-02T22:30:47.882Z,7.21
2023-03-02T22:33:18.466Z,7.22
2023-03-02T22:35:46.671Z,7.07
2023-03-02T22:38:17.727Z,7.17
2023-03-02T22:40:45.758Z,7.20
2023-03-02T22:43:16.677Z,7.21
2023-03-02T22:45:44.748Z,7.21
2023-03-02T22:48:16.984Z,7.26
2023-03-02T22:50:45.433Z,7.29
2023-03-02T22:53:28.173Z,7.34
2023-03-02T22:55:59.049Z,7.32
2023-03-02T22:58:42.551Z,7.32
2023-03-02T23:01:18.227Z,7.29
2023-03-02T23:03:48.038Z,7.23
2023-03-02T23:06:30.603Z,7.22
2023-03-02T23:09:00.613Z,7.14
2023-03-02T23:11:28.766Z,7.23
2023-03-02T23:13:56.781Z,7.20
2023-03-02T23:16:26.220Z,7.13
2023-03-02T23:18:57.372Z,7.06
2023-03-02T23:21:28.441Z,7.15
2023-03-02T23:23:56.613Z,7.14
2023-03-02T23:26:24.854Z,7.06
2023-03-02T23:28:54.026Z,7.05
2023-03-02T23:31:22.390Z,6.90
2023-03-02T23:33:50.612Z,6.96
2023-03-02T23:36:20.893Z,6.88
2023-03-02T23:38:50.018Z,6.92
2023-03-02T23:41:18.373Z,6.83
2023-03-02T23:43:46.455Z,6.86
2023-03-02T23:46:14.654Z,6.82
2023-03-02T23:48:42.892Z,6.75
2023-03-02T23:51:10.889Z,6.66
2023-03-02T23:53:40.297Z,6.40
2023-03-02T23:56:08.826Z,6.46
2023-03-02T23:58:36.911Z,6.43
